Hlavní strana
METAR-TAF:

METAR-TAF

Letiště :

Kuopio, Finsko

zeměpisná šířka: 63-01N, zeměpisná délka: 027-48E, výška: 98 m

Aktuální stav počasí

Zpráva byla vytvořena před 29 minutami, v 21:50 UTC
Severozápadní vítr 11 kt
Teplota -4°C
Vlhkost vzduchu 74%
Tlak 1001 hPa
Viditelnost 10 km a více
Žádná oblačnost pod 1500 m, nevyskytují se cumulonimby.

METAR: EFKU 252150Z AUTO 31011KT CAVOK M04/M08 Q1001

Čas: 00:19 (22:19 UTC)

Předpověď počasí

Zpráva byla vytvořena před 1 hodinou a 41 minutami, v 20:38 UTC
Předpověď platná od 25 v 21 UTC do 26 v 21 UTC
Severoseverozápadní vítr 13 kt
Viditelnost 10 km a více
Oblačno až skoro zataženo ve výšce 4500 ft

TAF: EFKU 252038Z 2521/2621 33013KT 9999 BKN045

Stav a předpovědi počasí z více než 4 000 letišť (zprávy METAR a TAF).

Červené a žluté tečky na mapě představují dostupné meteorologické stanice.

Když kurzor umístíte na tečku, zobrazí se název stanice.

Pak kliknutím zobrazíte stav a předpověď počasí.

Chcete-li změnit mapu, kliknutím na zelené tlačítko se znaménkem +mapu přiblížíte, kliknutím na zelené tlačítko se znaménkem – mapu oddálíte a kliknutím na zelené šipky přejdete na sousední mapy.


METAR-TAF: